createdAt,value
2018-05-10T00:00:46.305Z,3.30
2018-05-10T00:03:13.832Z,3.87
2018-05-10T00:05:41.348Z,3.33
2018-05-10T00:08:08.860Z,3.20
2018-05-10T00:10:36.355Z,3.20
2018-05-10T00:13:04.133Z,3.37
2018-05-10T00:15:31.647Z,4.10
2018-05-10T00:17:59.147Z,2.30
2018-05-10T00:20:27.406Z,2.53
2018-05-10T00:22:54.909Z,2.63
2018-05-10T00:25:22.423Z,2.97
2018-05-10T00:27:49.966Z,3.00
2018-05-10T00:30:17.494Z,2.70
2018-05-10T00:32:45.022Z,2.80
2018-05-10T00:35:12.534Z,2.87
2018-05-10T00:37:40.036Z,2.90
2018-05-10T00:40:07.539Z,3.20
2018-05-10T00:42:35.046Z,3.20
2018-05-10T00:45:02.546Z,5.00
2018-05-10T00:47:30.045Z,4.77
2018-05-10T00:49:57.556Z,4.40
2018-05-10T00:52:25.077Z,3.97
2018-05-10T00:54:54.359Z,4.13
2018-05-10T00:57:21.869Z,3.60
2018-05-10T00:59:49.379Z,3.40
2018-05-10T01:02:17.679Z,2.90
2018-05-10T01:04:45.234Z,4.10
2018-05-10T01:07:13.499Z,3.63
2018-05-10T01:09:41.791Z,3.50
2018-05-10T01:12:10.051Z,3.87
2018-05-10T01:14:37.641Z,4.40
2018-05-10T01:17:05.301Z,4.20
2018-05-10T01:19:33.572Z,3.40
2018-05-10T01:22:01.879Z,4.47
2018-05-10T01:24:29.379Z,3.77
2018-05-10T01:26:56.904Z,3.90
2018-05-10T01:29:24.581Z,4.40
2018-05-10T01:31:52.081Z,4.13
2018-05-10T01:34:19.589Z,4.27
2018-05-10T01:36:47.867Z,4.17
2018-05-10T01:39:15.392Z,4.27
2018-05-10T01:41:42.925Z,4.53
2018-05-10T01:44:10.434Z,4.67
2018-05-10T01:46:37.942Z,5.13
2018-05-10T01:49:05.448Z,4.97
2018-05-10T01:51:32.972Z,5.00
2018-05-10T01:54:00.561Z,4.80
2018-05-10T01:56:28.781Z,4.73
2018-05-10T01:58:57.064Z,4.70
2018-05-10T02:01:25.332Z,4.70
2018-05-10T02:03:52.852Z,5.10
2018-05-10T02:06:20.358Z,4.90
2018-05-10T02:08:47.862Z,4.80
2018-05-10T02:11:15.380Z,5.03
2018-05-10T02:13:42.896Z,5.40
2018-05-10T02:16:10.394Z,5.20
2018-05-10T02:18:37.929Z,5.43
2018-05-10T02:21:05.448Z,5.40
2018-05-10T02:23:33.724Z,5.57
2018-05-10T02:26:02.010Z,5.37
2018-05-10T02:28:30.336Z,5.37
2018-05-10T02:30:57.868Z,5.83
2018-05-10T02:33:26.140Z,5.60
2018-05-10T02:35:54.409Z,5.57
2018-05-10T02:38:21.930Z,5.40
2018-05-10T02:40:49.438Z,5.27
2018-05-10T02:43:16.941Z,6.67
2018-05-10T02:45:44.445Z,7.23
2018-05-10T02:48:11.957Z,9.13
2018-05-10T02:50:39.459Z,9.87
2018-05-10T02:53:06.957Z,8.43
2018-05-10T02:55:35.273Z,9.67
2018-05-10T02:58:02.781Z,9.17
2018-05-10T03:00:30.283Z,7.37
2018-05-10T03:02:57.801Z,7.97
2018-05-10T03:05:25.320Z,6.87
2018-05-10T03:07:52.989Z,7.90
2018-05-10T03:10:20.500Z,7.27
2018-05-10T03:12:48.013Z,6.73
2018-05-10T03:15:15.513Z,6.20
2018-05-10T03:17:43.045Z,5.63
2018-05-10T03:20:10.543Z,5.30
2018-05-10T03:22:38.040Z,5.20
2018-05-10T03:25:06.327Z,5.33
2018-05-10T03:27:34.601Z,5.00
2018-05-10T03:30:02.883Z,5.20
2018-05-10T03:32:31.173Z,4.90
2018-05-10T03:34:59.451Z,6.13
2018-05-10T03:37:27.739Z,6.43
2018-05-10T03:39:56.010Z,7.20
2018-05-10T03:42:24.282Z,6.93
2018-05-10T03:44:51.782Z,7.40
2018-05-10T03:47:19.322Z,6.97
2018-05-10T03:49:47.596Z,7.07
2018-05-10T03:52:15.880Z,7.43
2018-05-10T03:54:44.169Z,7.43
2018-05-10T03:57:12.426Z,8.27
2018-05-10T03:59:39.929Z,5.73
2018-05-10T04:02:07.437Z,5.10
2018-05-10T04:04:46.855Z,5.60
2018-05-10T04:07:26.092Z,5.23
2018-05-10T04:10:05.361Z,5.13
2018-05-10T04:12:33.635Z,4.53
2018-05-10T04:15:02.365Z,4.70
2018-05-10T04:17:29.873Z,5.00
2018-05-10T04:19:57.367Z,5.00
2018-05-10T04:22:25.623Z,4.63
2018-05-10T04:24:53.112Z,4.70
2018-05-10T04:27:21.397Z,5.60
2018-05-10T04:29:49.661Z,6.57
2018-05-10T04:32:17.953Z,6.40
2018-05-10T04:34:45.457Z,6.63
2018-05-10T04:37:12.971Z,6.17
2018-05-10T04:39:41.247Z,6.30
2018-05-10T04:42:08.797Z,6.13
2018-05-10T04:44:37.047Z,6.70
2018-05-10T04:47:04.558Z,5.80
2018-05-10T04:49:32.076Z,5.20
2018-05-10T04:51:59.597Z,6.10
2018-05-10T04:54:27.863Z,6.60
2018-05-10T04:56:55.380Z,5.83
2018-05-10T04:59:22.882Z,6.13
2018-05-10T05:01:50.380Z,6.23
2018-05-10T05:04:17.937Z,6.20
2018-05-10T05:06:46.218Z,6.00
2018-05-10T05:09:14.480Z,5.97
2018-05-10T05:11:41.986Z,6.30
2018-05-10T05:14:09.504Z,5.80
2018-05-10T05:16:37.784Z,6.47
2018-05-10T05:19:05.280Z,6.93
2018-05-10T05:21:32.783Z,7.60
2018-05-10T05:24:00.288Z,7.60
2018-05-10T05:26:28.582Z,7.97
2018-05-10T05:28:56.244Z,7.60
2018-05-10T05:31:23.754Z,8.20
2018-05-10T05:33:51.252Z,7.73
2018-05-10T05:36:18.766Z,6.60
2018-05-10T05:38:46.280Z,6.00
2018-05-10T05:41:14.656Z,6.50
2018-05-10T05:43:42.844Z,5.87
2018-05-10T05:46:11.114Z,6.10
2018-05-10T05:48:38.616Z,6.27
2018-05-10T05:51:06.112Z,6.30
2018-05-10T05:53:33.835Z,7.13
2018-05-10T05:56:01.324Z,6.53
2018-05-10T05:58:28.824Z,6.77
2018-05-10T06:00:56.370Z,6.43
2018-05-10T06:03:23.832Z,6.43
2018-05-10T06:05:51.360Z,7.40
2018-05-10T06:08:18.870Z,6.50
2018-05-10T06:10:46.371Z,6.67
2018-05-10T06:13:14.637Z,7.10
2018-05-10T06:15:42.239Z,6.67
2018-05-10T06:18:09.649Z,7.00
2018-05-10T06:20:37.145Z,8.07
2018-05-10T06:23:05.415Z,8.90
2018-05-10T06:25:32.923Z,7.87
2018-05-10T06:28:00.431Z,8.50
2018-05-10T06:30:27.933Z,8.63
2018-05-10T06:32:55.432Z,9.33
2018-05-10T06:35:22.929Z,8.13
2018-05-10T06:37:51.208Z,7.47
2018-05-10T06:40:19.537Z,8.37
2018-05-10T06:42:47.053Z,7.60
2018-05-10T06:45:14.561Z,8.53
2018-05-10T06:47:42.076Z,10.37
2018-05-10T06:50:09.580Z,8.90
2018-05-10T06:52:37.088Z,8.17
2018-05-10T06:55:04.591Z,7.90
2018-05-10T06:57:32.098Z,8.17
2018-05-10T06:59:59.598Z,7.63
2018-05-10T07:02:27.871Z,7.90
2018-05-10T07:04:55.382Z,8.60
2018-05-10T07:07:22.904Z,9.20
2018-05-10T07:09:51.377Z,9.47
2018-05-10T07:12:19.456Z,9.87
2018-05-10T07:14:46.953Z,10.23
2018-05-10T07:17:14.453Z,9.83
2018-05-10T07:19:41.953Z,9.57
2018-05-10T07:22:10.225Z,9.43
2018-05-10T07:24:38.509Z,9.03
2018-05-10T07:27:06.011Z,9.10
2018-05-10T07:29:33.520Z,9.13
2018-05-10T07:32:01.031Z,9.13
2018-05-10T07:34:28.545Z,11.13
2018-05-10T07:36:56.061Z,9.70
2018-05-10T07:39:23.559Z,8.63
2018-05-10T07:41:51.061Z,7.73
2018-05-10T07:44:19.365Z,6.97
2018-05-10T07:46:46.875Z,7.70
2018-05-10T07:49:14.385Z,7.57
2018-05-10T07:51:41.929Z,7.70
2018-05-10T07:54:10.212Z,8.83
2018-05-10T07:56:38.479Z,7.30
2018-05-10T07:59:06.011Z,7.70
2018-05-10T08:01:33.521Z,8.07
2018-05-10T08:04:01.795Z,8.50
2018-05-10T08:06:29.327Z,8.33
2018-05-10T08:08:56.892Z,7.20
2018-05-10T08:11:24.401Z,8.00
2018-05-10T08:13:52.672Z,7.23
2018-05-10T08:16:20.950Z,6.70
2018-05-10T08:18:48.452Z,6.37
2018-05-10T08:21:15.943Z,6.80
2018-05-10T08:23:49.325Z,7.50
2018-05-10T08:26:16.822Z,6.30
2018-05-10T08:28:44.338Z,6.40
2018-05-10T08:31:11.858Z,6.07
2018-05-10T08:33:39.370Z,6.20
2018-05-10T08:36:06.874Z,5.40
2018-05-10T08:38:34.556Z,7.23
2018-05-10T08:41:02.061Z,7.13
2018-05-10T08:43:29.562Z,6.77
2018-05-10T08:45:57.070Z,6.57
2018-05-10T08:48:24.576Z,7.27
2018-05-10T08:50:52.087Z,6.83
2018-05-10T08:53:20.380Z,7.23
2018-05-10T08:55:47.887Z,6.97
2018-05-10T08:58:15.399Z,5.67
2018-05-10T09:00:43.672Z,6.10
2018-05-10T09:03:11.946Z,6.17
2018-05-10T09:05:40.222Z,5.57
2018-05-10T09:08:07.715Z,5.93
2018-05-10T09:10:35.209Z,6.83
2018-05-10T09:13:02.721Z,6.97
2018-05-10T09:15:30.992Z,6.80
2018-05-10T09:17:58.494Z,6.67
2018-05-10T09:20:26.023Z,5.30
2018-05-10T09:22:54.301Z,5.20
2018-05-10T09:25:22.573Z,6.80
2018-05-10T09:27:50.255Z,7.30
2018-05-10T09:30:18.529Z,6.97
2018-05-10T09:32:46.035Z,6.10
2018-05-10T09:35:13.550Z,6.20
2018-05-10T09:37:41.059Z,6.00
2018-05-10T09:40:08.556Z,6.47
2018-05-10T09:42:36.307Z,6.07
2018-05-10T09:45:03.814Z,5.90
2018-05-10T09:47:31.335Z,6.67
2018-05-10T09:49:58.859Z,6.80
2018-05-10T09:52:27.136Z,8.07
2018-05-10T09:54:54.713Z,7.73
2018-05-10T09:57:22.260Z,7.93
2018-05-10T09:59:50.560Z,7.80
2018-05-10T10:02:18.056Z,7.37
2018-05-10T10:04:45.550Z,8.37
2018-05-10T10:07:13.053Z,7.83
2018-05-10T10:09:40.553Z,8.23
2018-05-10T10:12:08.076Z,7.50
2018-05-10T10:14:35.582Z,8.73
2018-05-10T10:17:03.115Z,7.20
2018-05-10T10:19:30.656Z,6.27
2018-05-10T10:21:58.931Z,5.97
2018-05-10T10:24:27.208Z,5.50
2018-05-10T10:26:55.499Z,5.87
2018-05-10T10:29:23.022Z,5.23
2018-05-10T10:31:50.524Z,4.57
2018-05-10T10:34:18.794Z,5.47
2018-05-10T10:36:47.082Z,5.00
2018-05-10T10:39:14.605Z,4.50
2018-05-10T10:41:42.103Z,4.80
2018-05-10T10:44:10.364Z,5.07
2018-05-10T10:46:37.907Z,5.70
2018-05-10T10:49:05.435Z,5.10
2018-05-10T10:51:33.784Z,3.80
2018-05-10T10:54:01.290Z,4.20
2018-05-10T10:56:28.819Z,2.60
2018-05-10T10:58:57.101Z,3.50
2018-05-10T11:01:25.389Z,3.43
2018-05-10T11:03:53.649Z,3.13
2018-05-10T11:06:28.770Z,3.30
2018-05-10T11:08:56.273Z,3.50
2018-05-10T11:11:24.555Z,3.30
2018-05-10T11:13:52.821Z,2.87
2018-05-10T11:16:20.315Z,2.70
2018-05-10T11:18:47.991Z,3.10
2018-05-10T11:21:15.507Z,2.70
2018-05-10T11:23:43.023Z,2.60
2018-05-10T11:26:10.551Z,2.87
2018-05-10T11:28:38.816Z,2.30
2018-05-10T11:31:06.361Z,2.40
2018-05-10T11:33:33.869Z,2.40
2018-05-10T11:36:01.421Z,2.40
2018-05-10T11:38:28.963Z,2.53
2018-05-10T11:44:17.644Z,2.40
2018-05-10T11:46:45.144Z,2.10
2018-05-10T11:49:12.657Z,1.93
2018-05-10T11:51:40.944Z,2.10
2018-05-10T11:54:08.455Z,2.30
2018-05-10T11:56:36.120Z,1.53
2018-05-10T11:59:03.632Z,1.77
2018-05-10T12:01:31.906Z,1.67
2018-05-10T12:03:59.419Z,1.90
2018-05-10T12:06:26.923Z,2.00
2018-05-10T12:08:54.426Z,1.80
2018-05-10T12:11:21.944Z,2.03
2018-05-10T12:13:49.438Z,2.57
2018-05-10T12:16:17.698Z,2.10
2018-05-10T12:18:45.184Z,2.00
2018-05-10T12:21:13.456Z,2.33
2018-05-10T12:23:41.779Z,2.40
2018-05-10T12:26:09.297Z,2.50
2018-05-10T12:28:37.595Z,1.90
2018-05-10T12:31:05.251Z,2.20
2018-05-10T12:33:32.697Z,2.67
2018-05-10T12:36:00.222Z,2.43
2018-05-10T12:38:27.745Z,2.10
2018-05-10T12:40:56.019Z,2.40
2018-05-10T12:43:24.297Z,2.27
2018-05-10T12:45:52.569Z,2.20
2018-05-10T12:48:20.096Z,2.40
2018-05-10T12:50:47.605Z,2.20
2018-05-10T12:53:22.125Z,2.40
2018-05-10T12:55:49.701Z,2.30
2018-05-10T12:58:17.997Z,2.20
2018-05-10T13:00:46.615Z,2.40
2018-05-10T13:03:14.287Z,1.47
2018-05-10T13:05:41.833Z,1.73
2018-05-10T13:08:09.332Z,1.63
2018-05-10T13:10:36.832Z,1.60
2018-05-10T13:13:05.105Z,1.70
2018-05-10T13:15:33.371Z,1.90
2018-05-10T13:18:00.889Z,1.90
2018-05-10T13:20:28.401Z,1.80
2018-05-10T13:22:56.708Z,1.97
2018-05-10T13:25:24.233Z,1.80
2018-05-10T13:27:51.742Z,1.90
2018-05-10T13:30:19.259Z,2.00
2018-05-10T13:32:46.763Z,1.70
2018-05-10T13:35:14.284Z,2.13
2018-05-10T13:37:41.787Z,2.43
2018-05-10T13:40:10.070Z,1.90
2018-05-10T13:42:37.597Z,2.17
2018-05-10T13:45:05.101Z,2.00
2018-05-10T13:47:32.702Z,2.00
2018-05-10T13:50:00.130Z,1.70
2018-05-10T13:52:27.647Z,1.80
2018-05-10T13:54:55.140Z,1.90
2018-05-10T13:57:23.412Z,2.00
2018-05-10T13:59:51.706Z,1.70
2018-05-10T14:02:20.018Z,1.60
2018-05-10T14:04:48.262Z,1.73
2018-05-10T14:07:16.564Z,2.00
2018-05-10T14:09:44.072Z,2.10
2018-05-10T14:12:11.603Z,1.93
2018-05-10T14:14:39.108Z,1.77
2018-05-10T14:17:06.611Z,1.83
2018-05-10T14:19:34.111Z,1.73
2018-05-10T14:22:01.670Z,2.03
2018-05-10T14:24:29.177Z,1.70
2018-05-10T14:26:56.693Z,1.70
2018-05-10T14:29:24.206Z,1.80
2018-05-10T14:31:52.477Z,2.10
2018-05-10T14:34:20.002Z,2.13
2018-05-10T14:36:47.533Z,2.03
2018-05-10T14:39:15.817Z,1.83
2018-05-10T14:41:43.353Z,2.10
2018-05-10T14:44:10.855Z,1.70
2018-05-10T14:46:38.383Z,1.70
2018-05-10T14:49:05.882Z,1.80
2018-05-10T14:51:33.423Z,2.00
2018-05-10T14:54:01.762Z,1.93
2018-05-10T14:56:29.970Z,2.07
2018-05-10T14:58:57.485Z,1.80
2018-05-10T15:01:24.995Z,1.67
2018-05-10T15:03:52.510Z,1.90
2018-05-10T15:06:20.195Z,1.90
2018-05-10T15:08:47.729Z,1.80
2018-05-10T15:11:15.231Z,2.00
2018-05-10T15:13:42.747Z,1.63
2018-05-10T15:16:10.303Z,1.90
2018-05-10T15:18:37.823Z,1.70
2018-05-10T15:21:05.331Z,1.60
2018-05-10T15:23:32.846Z,1.80
2018-05-10T15:26:00.378Z,1.80
2018-05-10T15:28:27.900Z,1.83
2018-05-10T15:30:55.401Z,1.90
2018-05-10T15:33:22.908Z,2.30
2018-05-10T15:35:50.414Z,2.20
2018-05-10T15:38:17.908Z,2.80
2018-05-10T15:40:45.405Z,1.70
2018-05-10T15:43:12.906Z,2.37
2018-05-10T15:45:40.438Z,2.33
2018-05-10T15:48:07.936Z,2.67
2018-05-10T15:50:35.453Z,1.30
2018-05-10T15:53:02.964Z,1.27
2018-05-10T15:55:30.482Z,1.30
2018-05-10T15:57:57.990Z,1.70
2018-05-10T16:00:25.506Z,1.20
2018-05-10T16:02:53.007Z,1.20
2018-05-10T16:05:20.531Z,1.50
2018-05-10T16:07:48.032Z,1.60
2018-05-10T16:10:16.298Z,1.30
2018-05-10T16:12:43.810Z,1.00
2018-05-10T16:15:12.359Z,1.30
2018-05-10T16:17:40.625Z,1.40
2018-05-10T16:20:08.131Z,1.40
2018-05-10T16:22:35.649Z,1.60
2018-05-10T16:25:03.159Z,1.90
2018-05-10T16:27:30.657Z,2.20
2018-05-10T16:29:58.173Z,2.37
2018-05-10T16:32:25.683Z,2.43
2018-05-10T16:34:53.181Z,2.23
2018-05-10T16:37:21.449Z,2.13
2018-05-10T16:39:49.729Z,2.73
2018-05-10T16:42:17.991Z,2.80
2018-05-10T16:44:45.493Z,2.63
2018-05-10T16:47:13.014Z,2.77
2018-05-10T16:49:40.525Z,2.47
2018-05-10T16:52:08.067Z,2.80
2018-05-10T16:54:35.617Z,2.97
2018-05-10T16:57:03.140Z,2.90
2018-05-10T16:59:30.641Z,2.70
2018-05-10T17:01:58.147Z,2.30
2018-05-10T17:04:25.677Z,2.30
2018-05-10T17:06:53.171Z,2.20
2018-05-10T17:09:20.711Z,3.37
2018-05-10T17:11:48.989Z,3.43
2018-05-10T17:14:16.486Z,3.50
2018-05-10T17:16:43.996Z,3.60
2018-05-10T17:19:11.494Z,2.70
2018-05-10T17:21:39.790Z,3.30
2018-05-10T17:24:07.302Z,3.00
2018-05-10T17:26:34.844Z,3.60
2018-05-10T17:29:02.364Z,3.30
2018-05-10T17:31:30.656Z,3.33
2018-05-10T17:33:58.177Z,3.20
2018-05-10T17:36:25.691Z,3.20
2018-05-10T17:38:53.202Z,3.47
2018-05-10T17:41:20.716Z,3.53
2018-05-10T17:43:48.220Z,3.80
2018-05-10T17:46:15.742Z,3.10
2018-05-10T17:48:43.244Z,3.40
2018-05-10T17:51:10.750Z,2.97
2018-05-10T17:53:39.010Z,3.40
2018-05-10T17:56:06.550Z,3.50
2018-05-10T17:58:34.042Z,3.33
2018-05-10T18:01:01.589Z,3.17
2018-05-10T18:03:29.076Z,3.30
2018-05-10T18:05:57.358Z,3.43
2018-05-10T18:08:25.651Z,3.50
2018-05-10T18:10:53.918Z,3.50
2018-05-10T18:13:21.417Z,3.07
2018-05-10T18:15:48.934Z,3.07
2018-05-10T18:18:16.437Z,2.80
2018-05-10T18:20:43.939Z,3.27
2018-05-10T18:23:11.514Z,3.03
2018-05-10T18:25:38.973Z,3.10
2018-05-10T18:28:06.477Z,3.60
2018-05-10T18:30:34.759Z,3.97
2018-05-10T18:33:03.025Z,3.63
2018-05-10T18:35:31.299Z,3.50
2018-05-10T18:37:58.847Z,3.73
2018-05-10T18:40:26.360Z,3.90
2018-05-10T18:42:54.025Z,3.73
2018-05-10T18:45:21.528Z,3.57
2018-05-10T18:47:49.032Z,3.43
2018-05-10T18:50:17.306Z,3.97
2018-05-10T18:52:45.576Z,3.60
2018-05-10T18:55:13.245Z,4.10
2018-05-10T18:57:40.746Z,4.17
2018-05-10T19:00:09.016Z,4.27
2018-05-10T19:02:37.309Z,4.37
2018-05-10T19:05:04.812Z,3.87
2018-05-10T19:07:32.339Z,4.47
2018-05-10T19:09:59.860Z,4.33
2018-05-10T19:12:27.376Z,4.70
2018-05-10T19:14:54.908Z,3.87
2018-05-10T19:17:23.178Z,4.33
2018-05-10T19:19:51.461Z,4.73
2018-05-10T19:22:19.744Z,4.07
2018-05-10T19:24:48.022Z,4.23
2018-05-10T19:27:16.285Z,4.37
2018-05-10T19:29:43.798Z,4.73
2018-05-10T19:32:11.322Z,4.63
2018-05-10T19:34:38.825Z,4.47
2018-05-10T19:37:06.336Z,3.73
2018-05-10T19:39:33.857Z,4.60
2018-05-10T19:42:01.358Z,4.90
2018-05-10T19:44:28.952Z,4.20
2018-05-10T19:46:56.435Z,4.53
2018-05-10T19:49:23.981Z,4.60
2018-05-10T19:51:52.263Z,4.50
2018-05-10T19:54:20.535Z,4.27
2018-05-10T19:56:48.938Z,4.60
2018-05-10T19:59:17.102Z,3.93
2018-05-10T20:01:45.365Z,4.17
2018-05-10T20:04:12.885Z,4.73
2018-05-10T20:06:40.380Z,4.37
2018-05-10T20:09:07.885Z,4.60
2018-05-10T20:11:35.388Z,4.67
2018-05-10T20:14:02.927Z,5.10
2018-05-10T20:16:30.437Z,4.47
2018-05-10T20:18:57.975Z,4.33
2018-05-10T20:21:25.490Z,4.10
2018-05-10T20:23:53.811Z,3.97
2018-05-10T20:26:22.082Z,4.60
2018-05-10T20:28:49.645Z,4.13
2018-05-10T20:31:17.148Z,4.30
2018-05-10T20:33:44.665Z,4.10
2018-05-10T20:36:12.166Z,4.30
2018-05-10T20:38:39.671Z,4.00
2018-05-10T20:41:07.958Z,4.30
2018-05-10T20:43:37.226Z,3.80
2018-05-10T20:46:04.740Z,4.20
2018-05-10T20:48:32.247Z,4.33
2018-05-10T20:50:59.752Z,4.10
2018-05-10T20:53:28.030Z,4.50
2018-05-10T20:55:56.322Z,4.37
2018-05-10T20:58:23.821Z,4.73
2018-05-10T21:00:51.332Z,4.23
2018-05-10T21:03:19.612Z,4.73
2018-05-10T21:05:47.890Z,5.03
2018-05-10T21:08:16.200Z,5.83
2018-05-10T21:10:43.718Z,5.23
2018-05-10T21:13:13.013Z,5.80
2018-05-10T21:15:40.508Z,5.97
2018-05-10T21:18:08.778Z,5.60
2018-05-10T21:20:36.272Z,5.40
2018-05-10T21:23:03.825Z,5.40
2018-05-10T21:25:32.089Z,5.40
2018-05-10T21:28:00.384Z,6.93
2018-05-10T21:30:28.650Z,5.17
2018-05-10T21:32:56.939Z,5.80
2018-05-10T21:35:25.215Z,5.40
2018-05-10T21:37:53.507Z,6.13
2018-05-10T21:40:21.772Z,5.63
2018-05-10T21:42:49.393Z,5.67
2018-05-10T21:45:17.096Z,5.17
2018-05-10T21:47:44.800Z,5.03
2018-05-10T21:50:12.337Z,5.30
2018-05-10T21:52:39.898Z,4.80
2018-05-10T21:55:08.185Z,5.13
2018-05-10T21:57:35.704Z,4.80
2018-05-10T22:00:03.255Z,5.00
2018-05-10T22:02:30.761Z,4.93
2018-05-10T22:04:58.272Z,5.10
2018-05-10T22:07:25.779Z,5.07
2018-05-10T22:09:53.307Z,5.43
2018-05-10T22:12:20.809Z,5.57
2018-05-10T22:14:48.304Z,5.60
2018-05-10T22:17:16.570Z,5.60
2018-05-10T22:19:44.839Z,5.37
2018-05-10T22:22:12.360Z,6.07
2018-05-10T22:24:39.879Z,5.33
2018-05-10T22:27:07.382Z,5.50
2018-05-10T22:29:34.905Z,5.80
2018-05-10T22:32:02.406Z,4.93
2018-05-10T22:34:29.917Z,4.73
2018-05-10T22:36:57.432Z,5.00
2018-05-10T22:39:24.931Z,5.07
2018-05-10T22:41:52.459Z,5.10
2018-05-10T22:44:20.135Z,5.70
2018-05-10T22:46:47.501Z,5.93
2018-05-10T22:49:15.016Z,5.30
2018-05-10T22:51:43.296Z,5.23
2018-05-10T22:54:11.572Z,6.10
2018-05-10T22:56:39.091Z,6.33
2018-05-10T22:59:06.607Z,6.00
2018-05-10T23:01:34.924Z,5.57
2018-05-10T23:04:02.445Z,5.27
2018-05-10T23:06:30.738Z,5.90
2018-05-10T23:08:59.011Z,5.50
2018-05-10T23:11:27.311Z,5.23
2018-05-10T23:13:54.804Z,5.80
2018-05-10T23:16:22.320Z,5.00
2018-05-10T23:18:50.602Z,5.57
2018-05-10T23:21:18.878Z,5.43
2018-05-10T23:23:47.155Z,5.57
2018-05-10T23:26:14.664Z,5.83
2018-05-10T23:28:42.166Z,5.37
2018-05-10T23:31:09.664Z,5.97
2018-05-10T23:33:37.184Z,5.53
2018-05-10T23:36:04.689Z,5.00
2018-05-10T23:38:32.955Z,4.73
2018-05-10T23:41:01.225Z,4.77
2018-05-10T23:43:28.708Z,4.13
2018-05-10T23:45:57.197Z,4.40
2018-05-10T23:48:25.469Z,5.07
2018-05-10T23:50:53.749Z,5.40
2018-05-10T23:53:22.029Z,5.53
2018-05-10T23:55:50.331Z,4.60
2018-05-10T23:58:17.833Z,4.50
